createdAt,value
2017-08-20T00:00:19.148Z,6.20
2017-08-20T00:02:45.509Z,5.33
2017-08-20T00:05:12.060Z,5.83
2017-08-20T00:07:38.451Z,5.63
2017-08-20T00:10:05.521Z,5.10
2017-08-20T00:12:31.874Z,4.63
2017-08-20T00:14:58.235Z,4.50
2017-08-20T00:17:24.611Z,4.40
2017-08-20T00:19:50.977Z,4.13
2017-08-20T00:22:17.322Z,4.23
2017-08-20T00:24:43.649Z,4.20
2017-08-20T00:27:10.073Z,5.00
2017-08-20T00:29:36.478Z,4.03
2017-08-20T00:32:02.980Z,4.20
2017-08-20T00:34:30.064Z,4.10
2017-08-20T00:36:56.420Z,3.93
2017-08-20T00:39:24.609Z,3.77
2017-08-20T00:41:51.820Z,3.97
2017-08-20T00:44:18.285Z,3.50
2017-08-20T00:46:45.076Z,3.80
2017-08-20T00:49:11.556Z,3.33
2017-08-20T00:51:37.951Z,4.23
2017-08-20T00:54:04.285Z,3.67
2017-08-20T00:56:30.642Z,3.40
2017-08-20T00:58:57.037Z,3.37
2017-08-20T01:01:23.382Z,3.80
2017-08-20T01:03:49.768Z,3.50
2017-08-20T01:06:16.096Z,3.93
2017-08-20T01:08:42.434Z,3.80
2017-08-20T01:11:09.285Z,3.83
2017-08-20T01:13:36.009Z,3.37
2017-08-20T01:16:02.384Z,3.20
2017-08-20T01:18:28.711Z,3.80
2017-08-20T01:20:55.056Z,3.30
2017-08-20T01:23:21.402Z,3.90
2017-08-20T01:25:47.932Z,3.57
2017-08-20T01:28:14.302Z,3.57
2017-08-20T01:30:40.657Z,3.53
2017-08-20T01:33:07.028Z,3.70
2017-08-20T01:35:34.105Z,3.37
2017-08-20T01:38:00.432Z,3.03
2017-08-20T01:40:28.808Z,3.00
2017-08-20T01:42:55.135Z,3.53
2017-08-20T01:45:21.461Z,3.10
2017-08-20T01:47:47.798Z,3.80
2017-08-20T01:50:14.217Z,2.83
2017-08-20T01:52:40.605Z,3.70
2017-08-20T01:55:07.753Z,3.80
2017-08-20T01:57:34.109Z,3.93
2017-08-20T02:00:00.486Z,4.03
2017-08-20T02:02:26.872Z,4.30
2017-08-20T02:04:53.238Z,3.80
2017-08-20T02:07:19.578Z,4.23
2017-08-20T02:09:45.974Z,4.47
2017-08-20T02:12:12.444Z,3.80
2017-08-20T02:14:39.220Z,4.27
2017-08-20T02:17:05.548Z,3.30
2017-08-20T02:19:32.410Z,3.93
2017-08-20T02:21:58.736Z,3.60
2017-08-20T02:24:25.080Z,4.10
2017-08-20T02:26:51.465Z,3.73
2017-08-20T02:29:17.830Z,4.17
2017-08-20T02:31:44.365Z,3.87
2017-08-20T02:34:11.680Z,3.40
2017-08-20T02:36:38.230Z,3.37
2017-08-20T02:39:04.805Z,3.87
2017-08-20T02:41:31.368Z,3.90
2017-08-20T02:43:57.909Z,3.97
2017-08-20T02:46:24.571Z,4.37
2017-08-20T02:48:51.138Z,4.10
2017-08-20T02:51:17.734Z,4.57
2017-08-20T02:53:44.283Z,4.40
2017-08-20T02:56:10.825Z,3.90
2017-08-20T02:58:37.351Z,3.90
2017-08-20T03:01:03.893Z,5.10
2017-08-20T03:03:31.189Z,4.63
2017-08-20T03:05:57.804Z,4.87
2017-08-20T03:08:24.245Z,4.77
2017-08-20T03:10:51.556Z,4.57
2017-08-20T03:13:18.143Z,4.73
2017-08-20T03:15:56.701Z,5.63
2017-08-20T03:18:25.149Z,5.20
2017-08-20T03:20:51.488Z,4.80
2017-08-20T03:23:18.861Z,5.33
2017-08-20T03:25:45.928Z,5.70
2017-08-20T03:28:12.453Z,5.30
2017-08-20T03:30:38.828Z,5.33
2017-08-20T03:33:05.181Z,6.20
2017-08-20T03:35:31.518Z,6.20
2017-08-20T03:37:57.907Z,5.47
2017-08-20T03:40:24.272Z,5.57
2017-08-20T03:42:50.638Z,6.03
2017-08-20T03:45:17.020Z,6.00
2017-08-20T03:47:43.376Z,7.10
2017-08-20T03:50:09.722Z,6.00
2017-08-20T03:52:36.383Z,6.43
2017-08-20T03:55:02.797Z,6.50
2017-08-20T03:57:29.152Z,7.23
2017-08-20T03:59:55.492Z,7.47
2017-08-20T04:02:22.902Z,8.40
2017-08-20T04:04:49.236Z,7.20
2017-08-20T04:07:15.586Z,6.63
2017-08-20T04:09:42.057Z,7.60
2017-08-20T04:12:08.394Z,8.17
2017-08-20T04:14:34.748Z,6.73
2017-08-20T04:17:01.081Z,6.87
2017-08-20T04:19:27.413Z,8.17
2017-08-20T04:21:53.744Z,7.20
2017-08-20T04:24:20.474Z,7.17
2017-08-20T04:26:46.849Z,7.80
2017-08-20T04:29:13.255Z,6.63
2017-08-20T04:31:39.592Z,7.53
2017-08-20T04:34:05.943Z,7.30
2017-08-20T04:36:32.300Z,6.90
2017-08-20T04:38:58.639Z,6.77
2017-08-20T04:41:25.753Z,7.70
2017-08-20T04:43:52.089Z,7.50
2017-08-20T04:46:18.514Z,6.57
2017-08-20T04:48:44.887Z,6.47
2017-08-20T04:51:11.217Z,6.90
2017-08-20T04:53:37.977Z,6.30
2017-08-20T04:56:04.328Z,7.03
2017-08-20T04:58:30.670Z,7.47
2017-08-20T05:00:56.992Z,9.93
2017-08-20T05:03:23.325Z,8.10
2017-08-20T05:05:49.689Z,8.90
2017-08-20T05:08:16.054Z,9.47
2017-08-20T05:10:42.651Z,9.83
2017-08-20T05:13:09.046Z,9.90
2017-08-20T05:15:35.412Z,9.73
2017-08-20T05:18:02.559Z,10.33
2017-08-20T05:20:28.893Z,9.77
2017-08-20T05:22:55.220Z,11.10
2017-08-20T05:25:21.532Z,10.73
2017-08-20T05:27:47.888Z,10.50
2017-08-20T05:30:14.226Z,9.60
2017-08-20T05:32:40.578Z,10.27
2017-08-20T05:35:06.913Z,10.70
2017-08-20T05:37:33.269Z,11.33
2017-08-20T05:39:59.627Z,10.57
2017-08-20T05:42:25.972Z,10.60
2017-08-20T05:44:52.336Z,11.03
2017-08-20T05:47:18.694Z,12.00
2017-08-20T05:49:45.796Z,11.13
2017-08-20T05:52:12.316Z,11.60
2017-08-20T05:54:38.637Z,12.03
2017-08-20T05:57:05.035Z,11.33
2017-08-20T05:59:32.051Z,12.17
2017-08-20T06:01:58.431Z,12.57
2017-08-20T06:04:24.778Z,12.00
2017-08-20T06:06:51.194Z,13.00
2017-08-20T06:09:17.548Z,13.43
2017-08-20T06:11:43.882Z,13.50
2017-08-20T06:14:10.213Z,13.30
2017-08-20T06:16:36.528Z,13.80
2017-08-20T06:19:02.867Z,15.43
2017-08-20T06:21:29.230Z,14.47
2017-08-20T06:23:55.573Z,15.53
2017-08-20T06:26:21.921Z,15.47
2017-08-20T06:28:48.239Z,14.27
2017-08-20T06:31:14.605Z,15.30
2017-08-20T06:33:41.016Z,15.43
2017-08-20T06:36:07.434Z,14.70
2017-08-20T06:38:33.780Z,14.17
2017-08-20T06:41:00.137Z,14.20
2017-08-20T06:43:26.459Z,13.47
2017-08-20T06:45:53.744Z,14.30
2017-08-20T06:48:20.103Z,14.13
2017-08-20T06:50:46.926Z,12.63
2017-08-20T06:53:13.249Z,12.80
2017-08-20T06:55:39.617Z,12.20
2017-08-20T06:58:05.926Z,14.50
2017-08-20T07:00:32.301Z,12.53
2017-08-20T07:02:58.642Z,13.43
2017-08-20T07:05:25.733Z,14.23
2017-08-20T07:07:52.072Z,14.77
2017-08-20T07:10:18.414Z,14.87
2017-08-20T07:12:44.778Z,15.00
2017-08-20T07:15:11.117Z,17.03
2017-08-20T07:17:37.433Z,15.03
2017-08-20T07:20:03.837Z,16.27
2017-08-20T07:22:30.206Z,15.23
2017-08-20T07:24:56.558Z,15.93
2017-08-20T07:27:23.126Z,15.87
2017-08-20T07:29:50.105Z,14.97
2017-08-20T07:32:16.710Z,15.60
2017-08-20T07:34:43.334Z,15.40
2017-08-20T07:37:09.923Z,15.30
2017-08-20T07:39:37.988Z,15.40
2017-08-20T07:42:04.352Z,16.63
2017-08-20T07:44:31.166Z,15.80
2017-08-20T07:46:57.820Z,15.40
2017-08-20T07:49:25.197Z,17.00
2017-08-20T07:51:51.551Z,16.43
2017-08-20T07:54:17.962Z,16.30
2017-08-20T07:56:44.337Z,16.70
2017-08-20T07:59:10.696Z,15.60
2017-08-20T08:01:37.273Z,14.13
2017-08-20T08:04:04.632Z,14.60
2017-08-20T08:06:31.626Z,13.23
2017-08-20T08:08:58.930Z,13.37
2017-08-20T08:11:25.548Z,12.93
2017-08-20T08:13:52.092Z,12.43
2017-08-20T08:16:18.661Z,12.13
2017-08-20T08:18:45.290Z,10.00
2017-08-20T08:21:12.721Z,10.17
2017-08-20T08:23:39.313Z,9.70
2017-08-20T08:26:05.863Z,8.60
2017-08-20T08:28:32.450Z,8.90
2017-08-20T08:30:59.000Z,9.07
2017-08-20T08:33:25.570Z,7.93
2017-08-20T08:35:52.139Z,7.13
2017-08-20T08:38:18.616Z,8.00
2017-08-20T08:40:45.202Z,6.90
2017-08-20T08:43:11.820Z,7.57
2017-08-20T08:45:38.510Z,7.20
2017-08-20T08:48:05.092Z,7.57
2017-08-20T08:50:32.498Z,7.10
2017-08-20T08:52:59.068Z,7.10
2017-08-20T08:55:25.838Z,6.97
2017-08-20T08:57:52.764Z,7.77
2017-08-20T09:00:19.322Z,7.13
2017-08-20T09:02:45.879Z,7.00
2017-08-20T09:05:13.590Z,7.33
2017-08-20T09:07:40.294Z,6.27
2017-08-20T09:10:06.888Z,5.97
2017-08-20T09:12:33.487Z,5.43
2017-08-20T09:15:00.056Z,5.63
2017-08-20T09:17:26.655Z,4.63
2017-08-20T09:19:53.122Z,4.70
2017-08-20T09:22:20.201Z,4.20
2017-08-20T09:24:46.768Z,4.20
2017-08-20T09:27:13.408Z,4.90
2017-08-20T09:29:40.030Z,4.20
2017-08-20T09:32:07.237Z,4.50
2017-08-20T09:34:33.776Z,4.20
2017-08-20T09:37:00.345Z,3.30
2017-08-20T09:39:26.912Z,3.70
2017-08-20T09:41:53.495Z,3.43
2017-08-20T09:44:20.060Z,2.67
2017-08-20T09:46:46.592Z,2.63
2017-08-20T09:49:19.371Z,3.00
2017-08-20T09:51:45.750Z,2.70
2017-08-20T09:54:12.146Z,2.70
2017-08-20T09:56:38.501Z,2.97
2017-08-20T09:59:05.728Z,2.73
2017-08-20T10:01:32.136Z,3.60
2017-08-20T10:03:59.217Z,2.70
2017-08-20T10:06:26.343Z,2.70
2017-08-20T10:08:52.828Z,2.70
2017-08-20T10:11:19.176Z,2.77
2017-08-20T10:13:45.565Z,3.47
2017-08-20T10:16:11.889Z,3.03
2017-08-20T10:18:38.389Z,3.00
2017-08-20T10:21:04.742Z,2.90
2017-08-20T10:23:31.096Z,3.07
2017-08-20T10:25:57.437Z,2.90
2017-08-20T10:28:23.788Z,3.17
2017-08-20T10:30:50.509Z,3.20
2017-08-20T10:33:16.860Z,3.20
2017-08-20T10:35:43.173Z,3.70
2017-08-20T10:38:10.212Z,3.47
2017-08-20T10:40:37.305Z,4.53
2017-08-20T10:43:03.699Z,3.97
2017-08-20T10:45:30.039Z,2.60
2017-08-20T10:47:56.396Z,2.87
2017-08-20T10:50:22.733Z,3.17
2017-08-20T10:52:49.056Z,2.97
2017-08-20T10:55:15.395Z,2.83
2017-08-20T10:57:42.195Z,3.07
2017-08-20T11:00:08.752Z,3.20
2017-08-20T11:02:35.279Z,2.60
2017-08-20T11:05:01.900Z,2.90
2017-08-20T11:07:28.478Z,2.33
2017-08-20T11:09:55.106Z,3.10
2017-08-20T11:12:21.461Z,3.10
2017-08-20T11:14:48.016Z,3.10
2017-08-20T11:17:15.323Z,2.70
2017-08-20T11:19:45.697Z,2.80
2017-08-20T11:22:12.112Z,2.73
2017-08-20T11:24:38.660Z,2.53
2017-08-20T11:27:05.053Z,3.00
2017-08-20T11:29:31.377Z,2.73
2017-08-20T11:31:57.745Z,2.80
2017-08-20T11:34:24.109Z,2.27
2017-08-20T11:36:50.538Z,2.53
2017-08-20T11:39:16.945Z,3.03
2017-08-20T11:41:44.025Z,2.77
2017-08-20T11:44:10.363Z,2.70
2017-08-20T11:46:36.829Z,2.30
2017-08-20T11:49:03.172Z,2.60
2017-08-20T11:51:29.495Z,2.57
2017-08-20T11:53:55.862Z,2.70
2017-08-20T11:56:22.217Z,3.03
2017-08-20T11:58:48.579Z,2.63
2017-08-20T12:01:14.916Z,2.00
2017-08-20T12:03:44.539Z,2.20
2017-08-20T12:06:12.785Z,2.40
2017-08-20T12:08:39.142Z,2.50
2017-08-20T12:11:05.495Z,3.47
2017-08-20T12:13:31.854Z,2.63
2017-08-20T12:15:58.393Z,3.20
2017-08-20T12:18:24.747Z,2.70
2017-08-20T12:20:51.128Z,2.97
2017-08-20T12:23:18.280Z,2.87
2017-08-20T12:25:44.612Z,2.77
2017-08-20T12:28:11.693Z,2.83
2017-08-20T12:30:38.112Z,2.70
2017-08-20T12:33:04.477Z,2.97
2017-08-20T12:35:31.473Z,2.73
2017-08-20T12:37:57.841Z,2.60
2017-08-20T12:40:24.189Z,2.90
2017-08-20T12:42:50.525Z,2.40
2017-08-20T12:45:16.900Z,2.80
2017-08-20T12:47:43.958Z,2.47
2017-08-20T12:50:10.283Z,2.80
2017-08-20T12:52:36.649Z,2.83
2017-08-20T12:55:03.880Z,3.03
2017-08-20T12:57:30.259Z,2.50
2017-08-20T12:59:56.810Z,3.10
2017-08-20T13:02:23.377Z,2.97
2017-08-20T13:04:49.924Z,3.10
2017-08-20T13:07:16.487Z,2.60
2017-08-20T13:09:43.077Z,2.70
2017-08-20T13:12:09.644Z,2.97
2017-08-20T13:14:36.197Z,2.70
2017-08-20T13:17:02.779Z,2.33
2017-08-20T13:19:29.452Z,2.93
2017-08-20T13:21:55.973Z,2.90
2017-08-20T13:24:22.546Z,2.40
2017-08-20T13:26:49.103Z,2.77
2017-08-20T13:29:15.693Z,2.43
2017-08-20T13:31:42.310Z,2.87
2017-08-20T13:34:08.852Z,2.40
2017-08-20T13:36:35.439Z,2.67
2017-08-20T13:39:02.076Z,2.73
2017-08-20T13:41:28.631Z,3.07
2017-08-20T13:43:55.183Z,3.00
2017-08-20T13:46:21.777Z,2.77
2017-08-20T13:48:48.404Z,3.37
2017-08-20T13:51:14.935Z,2.90
2017-08-20T13:53:41.746Z,2.80
2017-08-20T13:56:08.335Z,2.57
2017-08-20T13:58:34.957Z,3.20
2017-08-20T14:01:01.524Z,2.90
2017-08-20T14:03:28.966Z,3.10
2017-08-20T14:05:55.688Z,3.87
2017-08-20T14:08:22.431Z,3.57
2017-08-20T14:10:49.024Z,3.40
2017-08-20T14:13:15.755Z,3.50
2017-08-20T14:15:42.416Z,3.40
2017-08-20T14:18:09.060Z,4.23
2017-08-20T14:20:35.584Z,3.93
2017-08-20T14:23:02.109Z,4.40
2017-08-20T14:25:28.717Z,3.90
2017-08-20T14:27:56.067Z,5.13
2017-08-20T14:30:22.593Z,3.97
2017-08-20T14:32:49.140Z,3.93
2017-08-20T14:35:15.696Z,3.53
2017-08-20T14:37:42.365Z,4.20
2017-08-20T14:40:08.959Z,3.60
2017-08-20T14:42:35.524Z,3.33
2017-08-20T14:45:02.835Z,3.53
2017-08-20T14:47:29.389Z,3.43
2017-08-20T14:49:56.053Z,3.73
2017-08-20T14:52:23.365Z,3.10
2017-08-20T14:54:49.908Z,4.03
2017-08-20T14:57:16.588Z,4.20
2017-08-20T14:59:43.173Z,4.60
2017-08-20T15:02:09.764Z,4.70
2017-08-20T15:04:36.304Z,5.77
2017-08-20T15:07:02.888Z,4.93
2017-08-20T15:09:29.416Z,5.37
2017-08-20T15:11:55.948Z,5.67
2017-08-20T15:14:22.513Z,5.07
2017-08-20T15:16:49.069Z,4.70
2017-08-20T15:19:16.120Z,5.50
2017-08-20T15:21:43.164Z,4.80
2017-08-20T15:24:09.770Z,5.20
2017-08-20T15:26:36.323Z,4.87
2017-08-20T15:29:03.623Z,4.57
2017-08-20T15:31:30.211Z,4.43
2017-08-20T15:33:56.805Z,4.50
2017-08-20T15:36:24.013Z,5.37
2017-08-20T15:38:51.369Z,5.00
2017-08-20T15:41:17.909Z,4.60
2017-08-20T15:43:44.462Z,3.90
2017-08-20T15:46:11.014Z,4.83
2017-08-20T15:48:38.341Z,5.60
2017-08-20T15:51:05.320Z,5.03
2017-08-20T15:53:31.855Z,5.20
2017-08-20T15:55:59.256Z,4.90
2017-08-20T15:58:25.825Z,4.50
2017-08-20T16:00:52.400Z,4.50
2017-08-20T16:03:18.960Z,4.30
2017-08-20T16:05:45.484Z,4.07
2017-08-20T16:08:12.132Z,3.80
2017-08-20T16:10:38.757Z,3.93
2017-08-20T16:13:05.307Z,4.13
2017-08-20T16:15:32.615Z,4.77
2017-08-20T16:17:59.668Z,5.00
2017-08-20T16:20:26.244Z,4.90
2017-08-20T16:22:55.932Z,4.73
2017-08-20T16:25:22.588Z,5.00
2017-08-20T16:27:49.169Z,4.10
2017-08-20T16:30:15.712Z,4.00
2017-08-20T16:32:42.464Z,4.67
2017-08-20T16:35:09.010Z,4.60
2017-08-20T16:37:36.344Z,4.60
2017-08-20T16:40:02.772Z,4.77
2017-08-20T16:42:29.333Z,5.07
2017-08-20T16:44:55.897Z,4.10
2017-08-20T16:47:22.463Z,5.37
2017-08-20T16:49:48.987Z,4.40
2017-08-20T16:52:15.504Z,4.50
2017-08-20T16:54:42.069Z,4.67
2017-08-20T16:57:08.653Z,3.83
2017-08-20T16:59:35.209Z,3.53
2017-08-20T17:02:01.785Z,4.90
2017-08-20T17:04:28.343Z,3.80
2017-08-20T17:06:55.255Z,4.27
2017-08-20T17:09:22.023Z,3.47
2017-08-20T17:11:48.582Z,3.57
2017-08-20T17:14:15.888Z,4.57
2017-08-20T17:16:42.919Z,3.23
2017-08-20T17:19:09.485Z,3.77
2017-08-20T17:21:36.038Z,3.53
2017-08-20T17:24:02.620Z,3.57
2017-08-20T17:26:29.228Z,3.77
2017-08-20T17:28:55.789Z,3.40
2017-08-20T17:31:22.432Z,2.73
2017-08-20T17:33:49.069Z,2.60
2017-08-20T17:36:15.612Z,3.17
2017-08-20T17:38:42.187Z,2.77
2017-08-20T17:41:27.652Z,2.20
2017-08-20T17:43:55.619Z,2.10
2017-08-20T17:46:27.394Z,2.23
2017-08-20T17:48:56.672Z,2.00
2017-08-20T17:51:24.208Z,2.37
2017-08-20T17:53:50.745Z,2.50
2017-08-20T17:56:17.670Z,2.60
2017-08-20T17:58:44.941Z,1.80
2017-08-20T18:01:11.512Z,2.17
2017-08-20T18:03:38.052Z,2.03
2017-08-20T18:06:04.637Z,2.10
2017-08-20T18:08:31.916Z,2.03
2017-08-20T18:10:58.490Z,2.40
2017-08-20T18:13:25.048Z,2.60
2017-08-20T18:15:51.615Z,2.30
2017-08-20T18:18:18.160Z,2.23
2017-08-20T18:20:44.720Z,2.50
2017-08-20T18:23:11.355Z,2.67
2017-08-20T18:25:37.923Z,2.80
2017-08-20T18:28:05.192Z,2.20
2017-08-20T18:30:32.232Z,2.77
2017-08-20T18:32:58.889Z,2.47
2017-08-20T18:35:25.500Z,2.80
2017-08-20T18:37:52.798Z,2.90
2017-08-20T18:40:19.349Z,2.60
2017-08-20T18:42:46.098Z,3.10
2017-08-20T18:45:12.895Z,2.80
2017-08-20T18:47:39.452Z,16.17
2017-08-20T18:50:06.838Z,2.63
2017-08-20T18:52:33.414Z,2.20
2017-08-20T18:54:59.978Z,2.27
2017-08-20T18:57:26.548Z,1.97
2017-08-20T18:59:53.854Z,2.77
2017-08-20T19:02:20.428Z,2.67
2017-08-20T19:04:46.960Z,2.47
2017-08-20T19:07:13.633Z,3.10
2017-08-20T19:09:41.010Z,2.93
2017-08-20T19:12:07.612Z,2.73
2017-08-20T19:14:34.164Z,2.73
2017-08-20T19:17:00.724Z,2.70
2017-08-20T19:19:27.668Z,2.83
2017-08-20T19:21:54.250Z,2.40
2017-08-20T19:24:21.598Z,2.70
2017-08-20T19:26:48.281Z,2.90
2017-08-20T19:29:14.897Z,2.60
2017-08-20T19:31:42.280Z,3.37
2017-08-20T19:34:08.828Z,2.70
2017-08-20T19:36:35.372Z,3.00
2017-08-20T19:39:02.156Z,2.90
2017-08-20T19:41:28.702Z,3.40
2017-08-20T19:43:55.302Z,2.80
2017-08-20T19:46:21.953Z,2.60
2017-08-20T19:48:49.077Z,1.97
2017-08-20T19:51:16.201Z,2.50
2017-08-20T19:53:42.969Z,2.50
2017-08-20T19:56:09.512Z,2.27
2017-08-20T19:58:36.068Z,2.80
2017-08-20T20:01:03.269Z,2.30
2017-08-20T20:03:29.814Z,2.13
2017-08-20T20:05:56.490Z,2.10
2017-08-20T20:08:24.100Z,2.00
2017-08-20T20:10:50.640Z,2.50
2017-08-20T20:13:17.256Z,2.30
2017-08-20T20:15:43.852Z,2.40
2017-08-20T20:18:10.339Z,1.90
2017-08-20T20:20:36.984Z,1.90
2017-08-20T20:23:03.606Z,2.20
2017-08-20T20:25:30.176Z,2.60
2017-08-20T20:27:56.850Z,2.37
2017-08-20T20:30:23.535Z,2.03
2017-08-20T20:32:49.861Z,2.50
2017-08-20T20:35:16.412Z,2.47
2017-08-20T20:37:43.178Z,2.70
2017-08-20T20:40:09.696Z,2.50
2017-08-20T20:42:36.352Z,2.43
2017-08-20T20:45:02.955Z,2.77
2017-08-20T20:47:29.592Z,3.20
2017-08-20T20:49:56.190Z,2.70
2017-08-20T20:52:23.486Z,3.33
2017-08-20T20:54:50.676Z,3.03
2017-08-20T20:57:17.984Z,3.20
2017-08-20T20:59:44.305Z,3.43
2017-08-20T21:02:10.966Z,3.30
2017-08-20T21:04:37.315Z,3.40
2017-08-20T21:07:04.421Z,2.93
2017-08-20T21:09:30.928Z,3.07
2017-08-20T21:11:57.703Z,3.60
2017-08-20T21:14:24.339Z,3.90
2017-08-20T21:16:50.676Z,3.27
2017-08-20T21:19:17.025Z,3.00
2017-08-20T21:21:43.765Z,3.30
2017-08-20T21:24:10.162Z,3.43
2017-08-20T21:26:36.536Z,3.73
2017-08-20T21:29:02.969Z,3.53
2017-08-20T21:31:29.501Z,3.30
2017-08-20T21:33:56.156Z,2.80
2017-08-20T21:36:23.499Z,3.33
2017-08-20T21:38:50.645Z,3.53
2017-08-20T21:41:16.978Z,3.60
2017-08-20T21:43:43.313Z,4.00
2017-08-20T21:46:09.937Z,3.67
2017-08-20T21:48:39.443Z,4.20
2017-08-20T21:51:05.795Z,2.90
2017-08-20T21:53:32.153Z,3.27
2017-08-20T21:55:58.644Z,3.47
2017-08-20T21:58:25.385Z,2.80
2017-08-20T22:00:52.350Z,2.80
2017-08-20T22:03:19.324Z,3.20
2017-08-20T22:05:45.669Z,3.03
2017-08-20T22:08:12.029Z,3.40
2017-08-20T22:10:38.451Z,3.10
2017-08-20T22:13:04.793Z,3.30
2017-08-20T22:15:32.122Z,3.40
2017-08-20T22:17:58.629Z,3.47
2017-08-20T22:20:25.920Z,3.57
2017-08-20T22:22:52.496Z,3.03
2017-08-20T22:25:19.060Z,3.33
2017-08-20T22:27:45.708Z,3.40
2017-08-20T22:30:12.259Z,2.80
2017-08-20T22:32:39.207Z,3.00
2017-08-20T22:35:05.748Z,3.00
2017-08-20T22:37:32.672Z,3.40
2017-08-20T22:39:59.232Z,3.40
2017-08-20T22:42:25.758Z,3.70
2017-08-20T22:44:52.825Z,3.37
2017-08-20T22:47:19.448Z,3.37
2017-08-20T22:49:46.256Z,3.10
2017-08-20T22:52:12.789Z,3.80
2017-08-20T22:54:39.336Z,3.93
2017-08-20T22:57:05.921Z,4.27
2017-08-20T22:59:32.494Z,3.93
2017-08-20T23:01:59.565Z,4.53
2017-08-20T23:04:26.122Z,3.87
2017-08-20T23:06:52.703Z,4.53
2017-08-20T23:09:19.279Z,4.60
2017-08-20T23:11:46.575Z,3.90
2017-08-20T23:14:13.166Z,3.53
2017-08-20T23:16:39.762Z,4.20
2017-08-20T23:19:06.370Z,4.53
2017-08-20T23:21:33.304Z,3.73
2017-08-20T23:24:00.816Z,4.90
2017-08-20T23:26:27.373Z,4.20
2017-08-20T23:28:53.983Z,4.13
2017-08-20T23:31:20.540Z,4.83
2017-08-20T23:33:47.184Z,4.40
2017-08-20T23:36:13.761Z,4.25
2017-08-20T23:38:40.297Z,4.40
2017-08-20T23:41:06.871Z,3.90
2017-08-20T23:43:33.465Z,4.35
2017-08-20T23:46:00.065Z,4.70
2017-08-20T23:48:26.674Z,4.90
2017-08-20T23:50:53.254Z,4.57
2017-08-20T23:53:19.784Z,5.15
2017-08-20T23:55:47.084Z,4.60
2017-08-20T23:58:13.810Z,4.40
